메인 페이지
METAR-TAF:

METAR-TAF

공항 :

벵갈루루 국제공항

벵갈루루, 인도

위도: 13-11-56N, 경도: 077-42-20E, 고도: 915m

현재 날씨관측

예보는 24분 전, 20:30시(UTC)에 발표되었습니다.
여러 방향의 바람 2kt
온도 23°C
습도 61%
기압 1014 hPa
시정: 6000m
고도 1500ft 상공 구름 조금

METAR: VOBL 252030Z VRB02KT 6000 FEW015 23/15 Q1014 NOSIG

시각: 02:24 (20:54 UTC)

예보

예보는 54분 전, 20:00시(UTC)에 발표되었습니다.
예보 대상 시간: 25일 21시부터 26일 06시까지 (UTC)
여러 방향의 바람 2kt
시정: 6000m
고도 1500ft 상공 구름 조금
전환 중
26일 03시부터 26일 04시까지 (UTC)
남동10kt

TAF: VOBL 252000Z 2521/2606 VRB02KT 6000 FEW015 BECMG 2603/2604 14010KT

4,000개 이상의 공항 관측 자료 및 예보 (METAR 및 TAF 보고).

지도상에서 검색 가능한 기상관측소가 노란 점과 빨간 점으로 표시되어 있습니다.

기상관측소 명을 보려면 표시 위로 마우스를 이동하세요.

날씨 관측과 예보를 보려면 클릭하세요.

지도 변경 : 확대하려면 엑스 표시가 있는 녹색 버튼, 축소하려면 빼기 표시가 있는 녹색 버튼, 다음 페이지의 지도를 보려면 녹색 화살표를 클릭하세요.


METAR-TAF: